Time;durP1;ratioP1;P1;durP2;ratioP2;P2;SDS_P1;SDS_P2;PMS_P1;PMS_P2;Temp;Humidity;BMP_temperature;BMP_pressure;BME280_temperature;BME280_humidity;BME280_pressure;Samples;Min_cycle;Max_cycle;Signal;HPM_P1;HPM_P2
2022/08/08 00:00:44;;;;;;;7.9;7.099999;;;;;;;15.39;81.16504;95721.92;;;;
2022/08/08 00:01:52;;;;;;;7.9;7.099999;;;;;;;15.39;81.16504;95721.92;;;;
2022/08/08 00:02:57;;;;;;;7.9;7.099999;;;;;;;15.39;81.16504;95721.92;;;;
2022/08/08 00:04:03;;;;;;;7.9;7.099999;;;;;;;15.39;81.16504;95721.92;;;;
2022/08/08 00:05:07;;;;;;;7.9;7.099999;;;;;;;15.39;81.16504;95721.92;;;;
2022/08/08 00:06:16;;;;;;;7.9;7.099999;;;;;;;15.39;81.16504;95721.92;;;;
2022/08/08 00:07:27;;;;;;;7.45;6.85;;;;;;;15.26;81.40234;95723.35;;;;
2022/08/08 00:08:32;;;;;;;7.45;6.85;;;;;;;15.26;81.40234;95723.35;;;;
2022/08/08 00:09:40;;;;;;;7.45;6.85;;;;;;;15.26;81.40234;95723.35;;;;
2022/08/08 00:10:52;;;;;;;7.45;6.85;;;;;;;15.26;81.40234;95723.35;;;;
2022/08/08 00:11:57;;;;;;;7.45;6.85;;;;;;;15.26;81.40234;95723.35;;;;
2022/08/08 00:13:00;;;;;;;7.45;6.85;;;;;;;15.26;81.40234;95723.35;;;;
2022/08/08 00:14:09;;;;;;;7.45;6.85;;;;;;;15.26;81.40234;95723.35;;;;
2022/08/08 00:15:18;;;;;;;7.45;6.85;;;;;;;15.26;81.40234;95723.35;;;;
2022/08/08 00:16:22;;;;;;;7.45;6.85;;;;;;;15.26;81.40234;95723.35;;;;
2022/08/08 00:17:27;;;;;;;7.45;6.85;;;;;;;15.26;81.40234;95723.35;;;;
2022/08/08 00:18:41;;;;;;;7.45;6.85;;;;;;;15.26;81.40234;95723.35;;;;
2022/08/08 00:19:54;;;;;;;7.45;6.85;;;;;;;15.26;81.40234;95723.35;;;;
2022/08/08 00:21:00;;;;;;;7.45;6.85;;;;;;;15.26;81.40234;95723.35;;;;
2022/08/08 00:22:02;;;;;;;7.45;6.85;;;;;;;15.26;81.40234;95723.35;;;;
2022/08/08 00:23:08;;;;;;;7.45;6.85;;;;;;;15.26;81.40234;95723.35;;;;
2022/08/08 00:24:14;;;;;;;7.45;6.85;;;;;;;15.26;81.40234;95723.35;;;;
2022/08/08 00:25:19;;;;;;;7.45;6.85;;;;;;;15.26;81.40234;95723.35;;;;
2022/08/08 00:26:24;;;;;;;7.45;6.85;;;;;;;15.26;81.40234;95723.35;;;;
2022/08/08 00:27:30;;;;;;;7.45;6.85;;;;;;;15.26;81.40234;95723.35;;;;
2022/08/08 00:28:32;;;;;;;7.45;6.85;;;;;;;15.26;81.40234;95723.35;;;;
2022/08/08 00:29:38;;;;;;;7.349999;6.749999;;;;;;;15.06;81.91797;95714.06;;;;
2022/08/08 00:30:45;;;;;;;7.349999;6.749999;;;;;;;15.06;81.91797;95714.06;;;;
2022/08/08 00:31:52;;;;;;;7.349999;6.749999;;;;;;;15.06;81.91797;95714.06;;;;
2022/08/08 00:33:00;;;;;;;7.349999;6.749999;;;;;;;15.06;81.91797;95714.06;;;;
2022/08/08 00:35:09;;;;;;;7.349999;6.749999;;;;;;;15.06;81.91797;95714.06;;;;
2022/08/08 00:36:29;;;;;;;7.349999;6.749999;;;;;;;15.06;81.91797;95714.06;;;;
2022/08/08 00:37:36;;;;;;;7.349999;6.749999;;;;;;;15.06;81.91797;95714.06;;;;
2022/08/08 00:38:47;;;;;;;7.349999;6.749999;;;;;;;15.06;81.91797;95714.06;;;;
2022/08/08 00:39:54;;;;;;;8.199999;7.5;;;;;;;15;82.15723;95717.1;;;;
2022/08/08 00:41:06;;;;;;;8.199999;7.5;;;;;;;15;82.15723;95717.1;;;;
2022/08/08 00:46:28;;;;;;;8.199999;7.5;;;;;;;15;82.15723;95717.1;;;;
2022/08/08 00:47:59;;;;;;;8.199999;7.5;;;;;;;15;82.15723;95717.1;;;;
2022/08/08 00:49:28;;;;;;;8.199999;7.5;;;;;;;15;82.15723;95717.1;;;;
2022/08/08 00:51:00;;;;;;;7.6;7;;;;;;;14.88;82.30566;95714.53;;;;
2022/08/08 00:52:33;;;;;;;7.6;7;;;;;;;14.88;82.30566;95714.53;;;;
2022/08/08 00:53:45;;;;;;;7.6;7;;;;;;;14.88;82.30566;95714.53;;;;
2022/08/08 00:55:04;;;;;;;7.6;7;;;;;;;14.88;82.30566;95714.53;;;;
2022/08/08 00:56:19;;;;;;;7.6;7;;;;;;;14.88;82.30566;95714.53;;;;
2022/08/08 00:58:48;;;;;;;7.6;7;;;;;;;14.88;82.30566;95714.53;;;;
2022/08/08 01:00:15;;;;;;;7.6;7;;;;;;;14.88;82.30566;95714.53;;;;
2022/08/08 01:01:18;;;;;;;7.749999;6.949999;;;;;;;14.82;82.5127;95713.68;;;;
2022/08/08 01:02:27;;;;;;;7.749999;6.949999;;;;;;;14.82;82.5127;95713.68;;;;
2022/08/08 01:03:58;;;;;;;7.749999;6.949999;;;;;;;14.82;82.5127;95713.68;;;;
2022/08/08 01:06:27;;;;;;;7.749999;6.949999;;;;;;;14.82;82.5127;95713.68;;;;
2022/08/08 01:07:54;;;;;;;7.749999;6.949999;;;;;;;14.82;82.5127;95713.68;;;;
2022/08/08 01:13:22;;;;;;;7.35;6.699999;;;;;;;14.67;82.70117;95718.5;;;;
2022/08/08 01:14:58;;;;;;;7.35;6.699999;;;;;;;14.67;82.70117;95718.5;;;;
2022/08/08 01:16:39;;;;;;;7.35;6.699999;;;;;;;14.67;82.70117;95718.5;;;;
2022/08/08 01:23:19;;;;;;;7.35;6.699999;;;;;;;14.67;82.70117;95718.5;;;;
2022/08/08 01:24:48;;;;;;;7.35;6.699999;;;;;;;14.67;82.70117;95718.5;;;;
2022/08/08 01:26:06;;;;;;;7.35;6.699999;;;;;;;14.67;82.70117;95718.5;;;;
2022/08/08 01:27:28;;;;;;;7.35;6.699999;;;;;;;14.67;82.70117;95718.5;;;;
2022/08/08 01:28:56;;;;;;;7.35;6.699999;;;;;;;14.67;82.70117;95718.5;;;;
2022/08/08 01:30:21;;;;;;;7.35;6.699999;;;;;;;14.67;82.70117;95718.5;;;;
2022/08/08 01:31:49;;;;;;;7.35;6.699999;;;;;;;14.67;82.70117;95718.5;;;;
2022/08/08 01:33:19;;;;;;;7.95;7.35;;;;;;;14.48;83.18555;95711.19;;;;
2022/08/08 01:34:45;;;;;;;7.95;7.35;;;;;;;14.48;83.18555;95711.19;;;;
2022/08/08 01:36:03;;;;;;;7.95;7.35;;;;;;;14.48;83.18555;95711.19;;;;
2022/08/08 01:41:20;;;;;;;7.95;7.35;;;;;;;14.48;83.18555;95711.19;;;;
2022/08/08 01:42:30;;;;;;;7.95;7.35;;;;;;;14.48;83.18555;95711.19;;;;
2022/08/08 01:43:37;;;;;;;8.550001;7.8;;;;;;;14.42;83.50879;95716.09;;;;
2022/08/08 01:44:46;;;;;;;8.550001;7.8;;;;;;;14.42;83.50879;95716.09;;;;
2022/08/08 01:45:58;;;;;;;8.550001;7.8;;;;;;;14.42;83.50879;95716.09;;;;
2022/08/08 01:47:14;;;;;;;8.550001;7.8;;;;;;;14.42;83.50879;95716.09;;;;
2022/08/08 01:48:28;;;;;;;8.550001;7.8;;;;;;;14.42;83.50879;95716.09;;;;
2022/08/08 01:49:50;;;;;;;8.550001;7.8;;;;;;;14.42;83.50879;95716.09;;;;
2022/08/08 01:51:04;;;;;;;8.550001;7.8;;;;;;;14.42;83.50879;95716.09;;;;
2022/08/08 01:52:28;;;;;;;8.550001;7.8;;;;;;;14.42;83.50879;95716.09;;;;
2022/08/08 01:53:41;;;;;;;8.550001;7.8;;;;;;;14.42;83.50879;95716.09;;;;
2022/08/08 01:54:49;;;;;;;8.350001;7.649999;;;;;;;14.29;83.72559;95717.08;;;;
2022/08/08 01:56:04;;;;;;;8.350001;7.649999;;;;;;;14.29;83.72559;95717.08;;;;
2022/08/08 01:57:18;;;;;;;8.350001;7.649999;;;;;;;14.29;83.72559;95717.08;;;;
2022/08/08 01:58:28;;;;;;;8.350001;7.649999;;;;;;;14.29;83.72559;95717.08;;;;
2022/08/08 01:59:41;;;;;;;8.350001;7.649999;;;;;;;14.29;83.72559;95717.08;;;;
2022/08/08 02:01:07;;;;;;;8.350001;7.649999;;;;;;;14.29;83.72559;95717.08;;;;
2022/08/08 02:02:21;;;;;;;8.350001;7.649999;;;;;;;14.29;83.72559;95717.08;;;;
2022/08/08 02:03:39;;;;;;;8.350001;7.649999;;;;;;;14.29;83.72559;95717.08;;;;
2022/08/08 02:04:57;;;;;;;8.25;7.5;;;;;;;14.27;84;95725.89;;;;
2022/08/08 02:06:09;;;;;;;8.25;7.5;;;;;;;14.27;84;95725.89;;;;
2022/08/08 02:07:18;;;;;;;8.25;7.5;;;;;;;14.27;84;95725.89;;;;
2022/08/08 02:08:24;;;;;;;8.25;7.5;;;;;;;14.27;84;95725.89;;;;
2022/08/08 02:09:37;;;;;;;8.25;7.5;;;;;;;14.27;84;95725.89;;;;
2022/08/08 02:10:53;;;;;;;8.25;7.5;;;;;;;14.27;84;95725.89;;;;
2022/08/08 02:12:04;;;;;;;8.25;7.5;;;;;;;14.27;84;95725.89;;;;
2022/08/08 02:13:10;;;;;;;8.25;7.5;;;;;;;14.27;84;95725.89;;;;
2022/08/08 02:14:17;;;;;;;8.25;7.5;;;;;;;14.27;84;95725.89;;;;
2022/08/08 02:15:27;;;;;;;8.899999;8.050001;;;;;;;14.22;84.12305;95727.87;;;;
2022/08/08 02:16:35;;;;;;;8.899999;8.050001;;;;;;;14.22;84.12305;95727.87;;;;
2022/08/08 02:17:48;;;;;;;8.899999;8.050001;;;;;;;14.22;84.12305;95727.87;;;;
2022/08/08 02:18:55;;;;;;;8.899999;8.050001;;;;;;;14.22;84.12305;95727.87;;;;
2022/08/08 02:20:03;;;;;;;8.899999;8.050001;;;;;;;14.22;84.12305;95727.87;;;;
2022/08/08 02:26:32;;;;;;;9.4;8.3;;;;;;;14.21;84.27246;95734.64;;;;
2022/08/08 02:27:37;;;;;;;9.4;8.3;;;;;;;14.21;84.27246;95734.64;;;;
2022/08/08 02:28:43;;;;;;;9.4;8.3;;;;;;;14.21;84.27246;95734.64;;;;
2022/08/08 02:29:58;;;;;;;9.4;8.3;;;;;;;14.21;84.27246;95734.64;;;;
2022/08/08 02:31:06;;;;;;;9.4;8.3;;;;;;;14.21;84.27246;95734.64;;;;
2022/08/08 02:32:18;;;;;;;9.4;8.3;;;;;;;14.21;84.27246;95734.64;;;;
2022/08/08 02:33:34;;;;;;;9.4;8.3;;;;;;;14.21;84.27246;95734.64;;;;
2022/08/08 02:34:43;;;;;;;9.4;8.3;;;;;;;14.21;84.27246;95734.64;;;;
2022/08/08 02:37:06;;;;;;;8.299999;7.6;;;;;;;14.13;84.48145;95728.4;;;;
2022/08/08 02:38:19;;;;;;;8.299999;7.6;;;;;;;14.13;84.48145;95728.4;;;;
2022/08/08 02:39:32;;;;;;;8.299999;7.6;;;;;;;14.13;84.48145;95728.4;;;;
2022/08/08 02:40:50;;;;;;;8.299999;7.6;;;;;;;14.13;84.48145;95728.4;;;;
2022/08/08 02:42:13;;;;;;;8.299999;7.6;;;;;;;14.13;84.48145;95728.4;;;;
2022/08/08 02:43:44;;;;;;;8.299999;7.6;;;;;;;14.13;84.48145;95728.4;;;;
2022/08/08 02:45:12;;;;;;;8.299999;7.6;;;;;;;14.13;84.48145;95728.4;;;;
2022/08/08 02:46:52;;;;;;;8.299999;7.6;;;;;;;14.13;84.48145;95728.4;;;;
2022/08/08 02:48:14;;;;;;;7.45;6.849999;;;;;;;14.15;84.73535;95735.13;;;;
2022/08/08 02:49:37;;;;;;;7.45;6.849999;;;;;;;14.15;84.73535;95735.13;;;;
2022/08/08 02:50:55;;;;;;;7.45;6.849999;;;;;;;14.15;84.73535;95735.13;;;;
2022/08/08 02:52:21;;;;;;;7.45;6.849999;;;;;;;14.15;84.73535;95735.13;;;;
2022/08/08 02:54:07;;;;;;;7.45;6.849999;;;;;;;14.15;84.73535;95735.13;;;;
2022/08/08 02:55:27;;;;;;;7.45;6.849999;;;;;;;14.15;84.73535;95735.13;;;;
2022/08/08 02:57:08;;;;;;;7.45;6.849999;;;;;;;14.15;84.73535;95735.13;;;;
2022/08/08 02:58:35;;;;;;;7.95;7.15;;;;;;;14.04;84.71387;95746.08;;;;
2022/08/08 03:00:25;;;;;;;7.95;7.15;;;;;;;14.04;84.71387;95746.08;;;;
2022/08/08 03:01:49;;;;;;;7.95;7.15;;;;;;;14.04;84.71387;95746.08;;;;
2022/08/08 03:03:27;;;;;;;7.95;7.15;;;;;;;14.04;84.71387;95746.08;;;;
2022/08/08 03:05:28;;;;;;;7.95;7.15;;;;;;;14.04;84.71387;95746.08;;;;
2022/08/08 03:06:58;;;;;;;7.95;7.15;;;;;;;14.04;84.71387;95746.08;;;;
2022/08/08 03:08:31;;;;;;;7.95;7.15;;;;;;;14.04;84.71387;95746.08;;;;
2022/08/08 03:14:04;;;;;;;7.95;7.15;;;;;;;14.04;84.71387;95746.08;;;;
2022/08/08 03:15:24;;;;;;;7.95;7.15;;;;;;;14.04;84.71387;95746.08;;;;
2022/08/08 03:16:52;;;;;;;7.95;7.15;;;;;;;14.04;84.71387;95746.08;;;;
2022/08/08 03:17:57;;;;;;;7.95;7.15;;;;;;;14.04;84.71387;95746.08;;;;
2022/08/08 03:19:04;;;;;;;7.95;7.15;;;;;;;14.04;84.71387;95746.08;;;;
2022/08/08 03:25:09;;;;;;;8.400001;7.6;;;;;;;13.95;85.05469;95749.16;;;;
2022/08/08 03:26:12;;;;;;;8.400001;7.6;;;;;;;13.95;85.05469;95749.16;;;;
2022/08/08 03:27:16;;;;;;;8.400001;7.6;;;;;;;13.95;85.05469;95749.16;;;;
2022/08/08 03:28:24;;;;;;;8.400001;7.6;;;;;;;13.95;85.05469;95749.16;;;;
2022/08/08 03:29:31;;;;;;;8.400001;7.6;;;;;;;13.95;85.05469;95749.16;;;;
2022/08/08 03:30:37;;;;;;;8.000002;7.2;;;;;;;13.92;85.32813;95743.87;;;;
2022/08/08 03:36:49;;;;;;;8.000002;7.2;;;;;;;13.92;85.32813;95743.87;;;;
2022/08/08 03:37:50;;;;;;;8.000002;7.2;;;;;;;13.92;85.32813;95743.87;;;;
2022/08/08 03:38:51;;;;;;;8.000002;7.2;;;;;;;13.92;85.32813;95743.87;;;;
2022/08/08 03:39:53;;;;;;;8.000002;7.2;;;;;;;13.92;85.32813;95743.87;;;;
2022/08/08 03:40:54;;;;;;;7.650001;6.95;;;;;;;13.79;85.3916;95738.7;;;;
2022/08/08 03:41:54;;;;;;;7.650001;6.95;;;;;;;13.79;85.3916;95738.7;;;;
2022/08/08 03:42:55;;;;;;;7.650001;6.95;;;;;;;13.79;85.3916;95738.7;;;;
2022/08/08 03:43:55;;;;;;;7.650001;6.95;;;;;;;13.79;85.3916;95738.7;;;;
2022/08/08 03:44:57;;;;;;;7.650001;6.95;;;;;;;13.79;85.3916;95738.7;;;;
2022/08/08 03:45:58;;;;;;;7.650001;6.95;;;;;;;13.79;85.3916;95738.7;;;;
2022/08/08 03:47:03;;;;;;;7.650001;6.95;;;;;;;13.79;85.3916;95738.7;;;;
2022/08/08 03:48:06;;;;;;;7.650001;6.95;;;;;;;13.79;85.3916;95738.7;;;;
2022/08/08 03:49:08;;;;;;;7.650001;6.95;;;;;;;13.79;85.3916;95738.7;;;;
2022/08/08 03:50:16;;;;;;;7.650001;6.95;;;;;;;13.79;85.3916;95738.7;;;;
2022/08/08 03:51:17;;;;;;;7.650001;6.95;;;;;;;13.79;85.3916;95738.7;;;;
2022/08/08 03:52:18;;;;;;;8.25;7.2;;;;;;;13.7;85.55664;95749.33;;;;
2022/08/08 03:53:19;;;;;;;8.25;7.2;;;;;;;13.7;85.55664;95749.33;;;;
2022/08/08 03:54:20;;;;;;;8.25;7.2;;;;;;;13.7;85.55664;95749.33;;;;
2022/08/08 03:55:21;;;;;;;8.25;7.2;;;;;;;13.7;85.55664;95749.33;;;;
2022/08/08 03:56:23;;;;;;;8.25;7.2;;;;;;;13.7;85.55664;95749.33;;;;
2022/08/08 03:57:24;;;;;;;8.25;7.2;;;;;;;13.7;85.55664;95749.33;;;;
2022/08/08 03:58:24;;;;;;;8.25;7.2;;;;;;;13.7;85.55664;95749.33;;;;
2022/08/08 03:59:25;;;;;;;8.25;7.2;;;;;;;13.7;85.55664;95749.33;;;;
2022/08/08 04:00:29;;;;;;;8.25;7.2;;;;;;;13.7;85.55664;95749.33;;;;
2022/08/08 04:01:30;;;;;;;8.25;7.2;;;;;;;13.7;85.55664;95749.33;;;;
2022/08/08 04:02:34;;;;;;;8.549999;7.75;;;;;;;13.54;85.62305;95752.51;;;;
2022/08/08 04:03:35;;;;;;;8.549999;7.75;;;;;;;13.54;85.62305;95752.51;;;;
2022/08/08 04:04:35;;;;;;;8.549999;7.75;;;;;;;13.54;85.62305;95752.51;;;;
2022/08/08 04:05:36;;;;;;;8.549999;7.75;;;;;;;13.54;85.62305;95752.51;;;;
2022/08/08 04:06:37;;;;;;;8.549999;7.75;;;;;;;13.54;85.62305;95752.51;;;;
2022/08/08 04:07:38;;;;;;;8.549999;7.75;;;;;;;13.54;85.62305;95752.51;;;;
2022/08/08 04:08:39;;;;;;;8.549999;7.75;;;;;;;13.54;85.62305;95752.51;;;;
2022/08/08 04:09:41;;;;;;;8.549999;7.75;;;;;;;13.54;85.62305;95752.51;;;;
2022/08/08 04:10:55;;;;;;;8.549999;7.75;;;;;;;13.54;85.62305;95752.51;;;;
2022/08/08 04:11:55;;;;;;;8.549999;7.75;;;;;;;13.54;85.62305;95752.51;;;;
2022/08/08 04:12:58;;;;;;;8.700001;7.950001;;;;;;;13.44;85.80762;95751.28;;;;
2022/08/08 04:13:59;;;;;;;8.700001;7.950001;;;;;;;13.44;85.80762;95751.28;;;;
2022/08/08 04:15:00;;;;;;;8.700001;7.950001;;;;;;;13.44;85.80762;95751.28;;;;
2022/08/08 04:16:03;;;;;;;8.700001;7.950001;;;;;;;13.44;85.80762;95751.28;;;;
2022/08/08 04:17:04;;;;;;;8.700001;7.950001;;;;;;;13.44;85.80762;95751.28;;;;
2022/08/08 04:18:05;;;;;;;8.700001;7.950001;;;;;;;13.44;85.80762;95751.28;;;;
2022/08/08 04:19:05;;;;;;;8.700001;7.950001;;;;;;;13.44;85.80762;95751.28;;;;
2022/08/08 04:20:06;;;;;;;8.700001;7.950001;;;;;;;13.44;85.80762;95751.28;;;;
2022/08/08 04:21:07;;;;;;;8.700001;7.950001;;;;;;;13.44;85.80762;95751.28;;;;
2022/08/08 04:22:08;;;;;;;8.700001;7.950001;;;;;;;13.44;85.80762;95751.28;;;;
2022/08/08 04:23:08;;;;;;;8.700001;7.950001;;;;;;;13.44;85.80762;95751.28;;;;
2022/08/08 04:24:09;;;;;;;8.549999;7.749999;;;;;;;13.35;85.9209;95766.28;;;;
2022/08/08 04:25:09;;;;;;;8.549999;7.749999;;;;;;;13.35;85.9209;95766.28;;;;
2022/08/08 04:26:10;;;;;;;8.549999;7.749999;;;;;;;13.35;85.9209;95766.28;;;;
2022/08/08 04:27:10;;;;;;;8.549999;7.749999;;;;;;;13.35;85.9209;95766.28;;;;
2022/08/08 04:28:11;;;;;;;8.549999;7.749999;;;;;;;13.35;85.9209;95766.28;;;;
2022/08/08 04:29:11;;;;;;;8.549999;7.749999;;;;;;;13.35;85.9209;95766.28;;;;
2022/08/08 04:30:12;;;;;;;8.549999;7.749999;;;;;;;13.35;85.9209;95766.28;;;;
2022/08/08 04:31:13;;;;;;;8.549999;7.749999;;;;;;;13.35;85.9209;95766.28;;;;
2022/08/08 04:32:13;;;;;;;8.549999;7.749999;;;;;;;13.35;85.9209;95766.28;;;;
2022/08/08 04:33:14;;;;;;;8.549999;7.749999;;;;;;;13.35;85.9209;95766.28;;;;
2022/08/08 04:34:14;;;;;;;9.299998;8.400001;;;;;;;13.39;86.08887;95781.27;;;;
2022/08/08 04:35:14;;;;;;;9.299998;8.400001;;;;;;;13.39;86.08887;95781.27;;;;
2022/08/08 04:36:15;;;;;;;9.299998;8.400001;;;;;;;13.39;86.08887;95781.27;;;;
2022/08/08 04:37:16;;;;;;;9.299998;8.400001;;;;;;;13.39;86.08887;95781.27;;;;
2022/08/08 04:38:16;;;;;;;9.299998;8.400001;;;;;;;13.39;86.08887;95781.27;;;;
2022/08/08 04:39:17;;;;;;;9.299998;8.400001;;;;;;;13.39;86.08887;95781.27;;;;
2022/08/08 04:40:18;;;;;;;9.299998;8.400001;;;;;;;13.39;86.08887;95781.27;;;;
2022/08/08 04:41:19;;;;;;;9.299998;8.400001;;;;;;;13.39;86.08887;95781.27;;;;
2022/08/08 04:42:20;;;;;;;9.299998;8.400001;;;;;;;13.39;86.08887;95781.27;;;;
2022/08/08 04:43:20;;;;;;;9.299998;8.400001;;;;;;;13.39;86.08887;95781.27;;;;
2022/08/08 04:44:21;;;;;;;9.299998;8.400001;;;;;;;13.39;86.08887;95781.27;;;;
2022/08/08 04:45:22;;;;;;;9;8.200001;;;;;;;13.4;86.08105;95793.92;;;;
2022/08/08 04:46:23;;;;;;;9;8.200001;;;;;;;13.4;86.08105;95793.92;;;;
2022/08/08 04:47:23;;;;;;;9;8.200001;;;;;;;13.4;86.08105;95793.92;;;;
2022/08/08 04:48:24;;;;;;;9;8.200001;;;;;;;13.4;86.08105;95793.92;;;;
2022/08/08 04:49:24;;;;;;;9;8.200001;;;;;;;13.4;86.08105;95793.92;;;;
2022/08/08 04:50:25;;;;;;;9;8.200001;;;;;;;13.4;86.08105;95793.92;;;;
2022/08/08 04:51:25;;;;;;;9;8.200001;;;;;;;13.4;86.08105;95793.92;;;;
2022/08/08 04:52:26;;;;;;;9;8.200001;;;;;;;13.4;86.08105;95793.92;;;;
2022/08/08 04:53:26;;;;;;;9;8.200001;;;;;;;13.4;86.08105;95793.92;;;;
2022/08/08 04:54:27;;;;;;;9;8.200001;;;;;;;13.4;86.08105;95793.92;;;;
2022/08/08 04:55:28;;;;;;;9;8.200001;;;;;;;13.4;86.08105;95793.92;;;;
2022/08/08 04:56:28;;;;;;;9.099999;8.3;;;;;;;13.49;86.15332;95798.74;;;;
2022/08/08 04:57:29;;;;;;;9.099999;8.3;;;;;;;13.49;86.15332;95798.74;;;;
2022/08/08 04:58:30;;;;;;;9.099999;8.3;;;;;;;13.49;86.15332;95798.74;;;;
2022/08/08 04:59:30;;;;;;;9.099999;8.3;;;;;;;13.49;86.15332;95798.74;;;;
2022/08/08 05:00:31;;;;;;;9.099999;8.3;;;;;;;13.49;86.15332;95798.74;;;;
2022/08/08 05:01:31;;;;;;;9.099999;8.3;;;;;;;13.49;86.15332;95798.74;;;;
2022/08/08 05:02:32;;;;;;;9.099999;8.3;;;;;;;13.49;86.15332;95798.74;;;;
2022/08/08 05:03:32;;;;;;;9.099999;8.3;;;;;;;13.49;86.15332;95798.74;;;;
2022/08/08 05:04:33;;;;;;;9.099999;8.3;;;;;;;13.49;86.15332;95798.74;;;;
2022/08/08 05:05:33;;;;;;;9.099999;8.3;;;;;;;13.49;86.15332;95798.74;;;;
2022/08/08 05:06:34;;;;;;;9.25;8.399999;;;;;;;13.55;86.2168;95807.29;;;;
2022/08/08 05:07:35;;;;;;;9.25;8.399999;;;;;;;13.55;86.2168;95807.29;;;;
2022/08/08 05:08:36;;;;;;;9.25;8.399999;;;;;;;13.55;86.2168;95807.29;;;;
2022/08/08 05:09:37;;;;;;;9.25;8.399999;;;;;;;13.55;86.2168;95807.29;;;;
2022/08/08 05:10:37;;;;;;;9.25;8.399999;;;;;;;13.55;86.2168;95807.29;;;;
2022/08/08 05:11:38;;;;;;;9.25;8.399999;;;;;;;13.55;86.2168;95807.29;;;;
2022/08/08 05:12:39;;;;;;;9.25;8.399999;;;;;;;13.55;86.2168;95807.29;;;;
2022/08/08 05:13:39;;;;;;;9.25;8.399999;;;;;;;13.55;86.2168;95807.29;;;;
2022/08/08 05:14:40;;;;;;;9.25;8.399999;;;;;;;13.55;86.2168;95807.29;;;;
2022/08/08 05:15:41;;;;;;;9.25;8.399999;;;;;;;13.55;86.2168;95807.29;;;;
2022/08/08 05:16:41;;;;;;;9.25;8.399999;;;;;;;13.55;86.2168;95807.29;;;;
2022/08/08 05:17:42;;;;;;;8.9;8.1;;;;;;;13.7;86.3125;95813.47;;;;
2022/08/08 05:18:42;;;;;;;8.9;8.1;;;;;;;13.7;86.3125;95813.47;;;;
2022/08/08 05:19:43;;;;;;;8.9;8.1;;;;;;;13.7;86.3125;95813.47;;;;
2022/08/08 05:20:43;;;;;;;8.9;8.1;;;;;;;13.7;86.3125;95813.47;;;;
2022/08/08 05:21:44;;;;;;;8.9;8.1;;;;;;;13.7;86.3125;95813.47;;;;
2022/08/08 05:22:45;;;;;;;8.9;8.1;;;;;;;13.7;86.3125;95813.47;;;;
2022/08/08 05:23:45;;;;;;;8.9;8.1;;;;;;;13.7;86.3125;95813.47;;;;
2022/08/08 05:24:46;;;;;;;8.9;8.1;;;;;;;13.7;86.3125;95813.47;;;;
2022/08/08 05:25:47;;;;;;;8.9;8.1;;;;;;;13.7;86.3125;95813.47;;;;
2022/08/08 05:26:48;;;;;;;8.9;8.1;;;;;;;13.7;86.3125;95813.47;;;;
2022/08/08 05:27:48;;;;;;;8.9;8.15;;;;;;;13.87;86.25977;95810.58;;;;
2022/08/08 05:28:49;;;;;;;8.9;8.15;;;;;;;13.87;86.25977;95810.58;;;;
2022/08/08 05:29:49;;;;;;;8.9;8.15;;;;;;;13.87;86.25977;95810.58;;;;
2022/08/08 05:30:50;;;;;;;8.9;8.15;;;;;;;13.87;86.25977;95810.58;;;;
2022/08/08 05:31:50;;;;;;;8.9;8.15;;;;;;;13.87;86.25977;95810.58;;;;
2022/08/08 05:32:52;;;;;;;8.9;8.15;;;;;;;13.87;86.25977;95810.58;;;;
2022/08/08 05:33:53;;;;;;;8.9;8.15;;;;;;;13.87;86.25977;95810.58;;;;
2022/08/08 05:34:53;;;;;;;8.9;8.15;;;;;;;13.87;86.25977;95810.58;;;;
2022/08/08 05:35:58;;;;;;;8.9;8.15;;;;;;;13.87;86.25977;95810.58;;;;
2022/08/08 05:37:01;;;;;;;8.9;8.15;;;;;;;13.87;86.25977;95810.58;;;;
2022/08/08 05:38:03;;;;;;;8.9;8.15;;;;;;;13.87;86.25977;95810.58;;;;
2022/08/08 05:39:06;;;;;;;8.700002;7.900001;;;;;;;14.23;86.26367;95819.11;;;;
2022/08/08 05:40:08;;;;;;;8.700002;7.900001;;;;;;;14.23;86.26367;95819.11;;;;
2022/08/08 05:41:10;;;;;;;8.700002;7.900001;;;;;;;14.23;86.26367;95819.11;;;;
2022/08/08 05:42:13;;;;;;;8.700002;7.900001;;;;;;;14.23;86.26367;95819.11;;;;
2022/08/08 05:43:14;;;;;;;8.700002;7.900001;;;;;;;14.23;86.26367;95819.11;;;;
2022/08/08 05:44:23;;;;;;;8.700002;7.900001;;;;;;;14.23;86.26367;95819.11;;;;
2022/08/08 05:45:28;;;;;;;8.700002;7.900001;;;;;;;14.23;86.26367;95819.11;;;;
2022/08/08 05:46:33;;;;;;;8.700002;7.900001;;;;;;;14.23;86.26367;95819.11;;;;
2022/08/08 05:47:34;;;;;;;8.700002;7.900001;;;;;;;14.23;86.26367;95819.11;;;;
2022/08/08 05:48:36;;;;;;;8.700002;7.900001;;;;;;;14.23;86.26367;95819.11;;;;
2022/08/08 05:49:38;;;;;;;7.8;7.15;;;;;;;14.73;85.93945;95820.17;;;;
2022/08/08 05:50:40;;;;;;;7.8;7.15;;;;;;;14.73;85.93945;95820.17;;;;
2022/08/08 05:51:41;;;;;;;7.8;7.15;;;;;;;14.73;85.93945;95820.17;;;;
2022/08/08 05:52:43;;;;;;;7.8;7.15;;;;;;;14.73;85.93945;95820.17;;;;
2022/08/08 05:53:43;;;;;;;7.8;7.15;;;;;;;14.73;85.93945;95820.17;;;;
2022/08/08 05:54:45;;;;;;;7.8;7.15;;;;;;;14.73;85.93945;95820.17;;;;
2022/08/08 05:55:45;;;;;;;7.8;7.15;;;;;;;14.73;85.93945;95820.17;;;;
2022/08/08 05:56:47;;;;;;;7.8;7.15;;;;;;;14.73;85.93945;95820.17;;;;
2022/08/08 05:57:49;;;;;;;7.8;7.15;;;;;;;14.73;85.93945;95820.17;;;;
2022/08/08 05:58:51;;;;;;;7.8;7.15;;;;;;;14.73;85.93945;95820.17;;;;
2022/08/08 06:00:01;;;;;;;6.9;6.3;;;;;;;15.37;85.6748;95825.11;;;;
2022/08/08 06:01:05;;;;;;;6.9;6.3;;;;;;;15.37;85.6748;95825.11;;;;
2022/08/08 06:03:09;;;;;;;6.9;6.3;;;;;;;15.37;85.6748;95825.11;;;;
2022/08/08 06:04:14;;;;;;;6.9;6.3;;;;;;;15.37;85.6748;95825.11;;;;
2022/08/08 06:05:18;;;;;;;6.9;6.3;;;;;;;15.37;85.6748;95825.11;;;;
2022/08/08 06:06:20;;;;;;;6.9;6.3;;;;;;;15.37;85.6748;95825.11;;;;
2022/08/08 06:07:22;;;;;;;6.9;6.3;;;;;;;15.37;85.6748;95825.11;;;;
2022/08/08 06:08:23;;;;;;;6.9;6.3;;;;;;;15.37;85.6748;95825.11;;;;
2022/08/08 06:09:28;;;;;;;6.9;6.3;;;;;;;15.37;85.6748;95825.11;;;;
2022/08/08 06:10:30;;;;;;;6.2;5.699999;;;;;;;15.95;84.9834;95838.95;;;;
2022/08/08 06:11:31;;;;;;;6.2;5.699999;;;;;;;15.95;84.9834;95838.95;;;;
2022/08/08 06:12:33;;;;;;;6.2;5.699999;;;;;;;15.95;84.9834;95838.95;;;;
2022/08/08 06:13:34;;;;;;;6.2;5.699999;;;;;;;15.95;84.9834;95838.95;;;;
2022/08/08 06:14:35;;;;;;;6.2;5.699999;;;;;;;15.95;84.9834;95838.95;;;;
2022/08/08 06:15:36;;;;;;;6.2;5.699999;;;;;;;15.95;84.9834;95838.95;;;;
2022/08/08 06:16:36;;;;;;;6.2;5.699999;;;;;;;15.95;84.9834;95838.95;;;;
2022/08/08 06:17:37;;;;;;;6.2;5.699999;;;;;;;15.95;84.9834;95838.95;;;;
2022/08/08 06:18:39;;;;;;;6.2;5.699999;;;;;;;15.95;84.9834;95838.95;;;;
2022/08/08 06:19:40;;;;;;;6.2;5.699999;;;;;;;15.95;84.9834;95838.95;;;;
2022/08/08 06:20:41;;;;;;;6.2;5.699999;;;;;;;15.95;84.9834;95838.95;;;;
2022/08/08 06:21:42;;;;;;;5.949999;5.2;;;;;;;16.63;84.29688;95843.7;;;;
2022/08/08 06:22:44;;;;;;;5.949999;5.2;;;;;;;16.63;84.29688;95843.7;;;;
2022/08/08 06:23:45;;;;;;;5.949999;5.2;;;;;;;16.63;84.29688;95843.7;;;;
2022/08/08 06:24:46;;;;;;;5.949999;5.2;;;;;;;16.63;84.29688;95843.7;;;;
2022/08/08 06:25:46;;;;;;;5.949999;5.2;;;;;;;16.63;84.29688;95843.7;;;;
2022/08/08 06:26:56;;;;;;;5.949999;5.2;;;;;;;16.63;84.29688;95843.7;;;;
2022/08/08 06:28:03;;;;;;;5.949999;5.2;;;;;;;16.63;84.29688;95843.7;;;;
2022/08/08 06:29:12;;;;;;;5.949999;5.2;;;;;;;16.63;84.29688;95843.7;;;;
2022/08/08 06:30:18;;;;;;;5.949999;5.2;;;;;;;16.63;84.29688;95843.7;;;;
2022/08/08 06:31:19;;;;;;;5.949999;5.2;;;;;;;16.63;84.29688;95843.7;;;;
2022/08/08 06:32:22;;;;;;;5.35;4.85;;;;;;;17.24;83.69434;95839.84;;;;
2022/08/08 06:33:28;;;;;;;5.35;4.85;;;;;;;17.24;83.69434;95839.84;;;;
2022/08/08 06:34:36;;;;;;;5.35;4.85;;;;;;;17.24;83.69434;95839.84;;;;
2022/08/08 06:35:38;;;;;;;5.35;4.85;;;;;;;17.24;83.69434;95839.84;;;;
2022/08/08 06:36:45;;;;;;;5.35;4.85;;;;;;;17.24;83.69434;95839.84;;;;
2022/08/08 06:37:51;;;;;;;5.35;4.85;;;;;;;17.24;83.69434;95839.84;;;;
2022/08/08 06:38:58;;;;;;;5.35;4.85;;;;;;;17.24;83.69434;95839.84;;;;
2022/08/08 06:40:00;;;;;;;5.35;4.85;;;;;;;17.24;83.69434;95839.84;;;;
2022/08/08 06:41:04;;;;;;;5.35;4.85;;;;;;;17.24;83.69434;95839.84;;;;
2022/08/08 06:42:08;;;;;;;5.35;4.85;;;;;;;17.24;83.69434;95839.84;;;;
2022/08/08 06:43:10;;;;;;;5.75;5.25;;;;;;;18.71;81.63086;95837.41;;;;
2022/08/08 06:44:17;;;;;;;5.75;5.25;;;;;;;18.71;81.63086;95837.41;;;;
2022/08/08 06:45:21;;;;;;;5.75;5.25;;;;;;;18.71;81.63086;95837.41;;;;
2022/08/08 06:46:23;;;;;;;5.75;5.25;;;;;;;18.71;81.63086;95837.41;;;;
2022/08/08 06:47:23;;;;;;;5.75;5.25;;;;;;;18.71;81.63086;95837.41;;;;
2022/08/08 06:48:24;;;;;;;5.75;5.25;;;;;;;18.71;81.63086;95837.41;;;;
2022/08/08 06:49:25;;;;;;;5.75;5.25;;;;;;;18.71;81.63086;95837.41;;;;
2022/08/08 06:50:27;;;;;;;5.75;5.25;;;;;;;18.71;81.63086;95837.41;;;;
2022/08/08 06:51:28;;;;;;;5.75;5.25;;;;;;;18.71;81.63086;95837.41;;;;
2022/08/08 06:52:29;;;;;;;5.75;5.25;;;;;;;18.71;81.63086;95837.41;;;;
2022/08/08 06:53:31;;;;;;;6.249999;5.25;;;;;;;21.62;76.25781;95841.5;;;;
2022/08/08 06:54:32;;;;;;;6.249999;5.25;;;;;;;21.62;76.25781;95841.5;;;;